»·PEaware :: N2915M KSEE-KWHP

N2915M :: KSEE-KWHP

FLIGHT INFORMATION

Flight Status: Arrived
Operator: Privately registered:
United States
More flights under this callsign
Pilot: Alexander S. (32711)
Aircraft: PIPER PA-28R-201 ARROW
(P28R)
More flights by this aircraft type
Origin: KSEE Gillespie
United States
Destination: KWHP Whiteman
United States
More flights between these airports :: More routes between these airports
Route: OCN V23 POPPR SMO125 SMO SMO317 CANOG
File this flight plan on PilotEdge
Remarks: SANP15
Altitude:
(Current/Filed)
6,000ft
Speed:
(Current/Filed)
130kts
Departed: 04-Nov-23 05:32 PM
Arrived: 04-Nov-23 06:40 PM
Distance/Time
Traveled:
112nm/1:08
Distance/Time
To Go:
Arrived

Flight Plot

Page will automatically refresh every two minutes.


Map Options




Map Legend


Flown Route
Filed Route
Departure Airport
Arrival Airport
Navaid (VOR, NDB)
Fix

Horizontal Profiles

Position Reports

Time Latitude Longitude Heading Altitude Ground
Speed
04-Nov-23 17:09 32.823360 -116.970060 269 380ft 0kts
04-Nov-23 17:10 32.823360 -116.970060 269 380ft 0kts
04-Nov-23 17:11 32.823360 -116.970060 269 380ft 0kts
04-Nov-23 17:12 32.823586 -116.971034 269 380ft 9kts
04-Nov-23 17:13 32.823579 -116.971413 270 380ft 0kts
04-Nov-23 17:14 32.823579 -116.971413 270 380ft 0kts
04-Nov-23 17:15 32.823579 -116.971413 270 380ft 0kts
04-Nov-23 17:16 32.823579 -116.971413 270 380ft 0kts
04-Nov-23 17:17 32.823579 -116.971413 270 380ft 0kts
04-Nov-23 17:18 32.823579 -116.971413 269 380ft 0kts
04-Nov-23 17:19 32.823579 -116.971413 269 380ft 0kts
04-Nov-23 17:20 32.823579 -116.971413 269 380ft 0kts
04-Nov-23 17:21 32.823579 -116.971413 269 380ft 0kts
04-Nov-23 17:22 32.823579 -116.971413 269 380ft 0kts
04-Nov-23 17:23 32.823579 -116.971413 269 380ft 0kts
04-Nov-23 17:24 32.823579 -116.971412 269 380ft 0kts
04-Nov-23 17:25 32.823579 -116.971412 269 380ft 0kts
04-Nov-23 17:26 32.825499 -116.971807 359 375ft 16kts
04-Nov-23 17:27 32.825264 -116.967821 101 382ft 18kts
04-Nov-23 17:28 32.824961 -116.964464 55 390ft 11kts
04-Nov-23 17:29 32.825908 -116.964373 341 390ft 0kts
04-Nov-23 17:30 32.826409 -116.964768 321 389ft 9kts
04-Nov-23 17:31 32.830090 -116.983877 283 582ft 93kts
04-Nov-23 17:32 32.848271 -117.000636 355 1545ft 95kts
04-Nov-23 17:33 32.875429 -117.002720 354 2444ft 98kts
04-Nov-23 17:34 32.902908 -117.005904 347 3295ft 100kts
04-Nov-23 17:35 32.929960 -117.012706 316 4087ft 101kts
04-Nov-23 17:36 32.949222 -117.036608 314 4890ft 100kts
04-Nov-23 17:37 32.967873 -117.062307 310 5614ft 104kts
04-Nov-23 17:38 32.987870 -117.088303 312 6137ft 118kts
04-Nov-23 17:39 33.011498 -117.119841 313 6164ft 136kts
04-Nov-23 17:40 33.037705 -117.152868 315 6126ft 137kts
04-Nov-23 17:41 33.063704 -117.186327 315 6112ft 135kts
04-Nov-23 17:42 33.089501 -117.219296 312 6124ft 134kts
04-Nov-23 17:43 33.107895 -117.243385 312 6154ft 133kts
04-Nov-23 17:44 33.132134 -117.277745 311 6169ft 134kts
04-Nov-23 17:45 33.158127 -117.310363 314 6175ft 133kts
04-Nov-23 17:46 33.184385 -117.342965 313 6170ft 135kts
04-Nov-23 17:47 33.210007 -117.376601 312 6131ft 135kts
04-Nov-23 17:48 33.235661 -117.410118 312 6120ft 134kts
04-Nov-23 17:49 33.262415 -117.442032 316 6113ft 134kts
04-Nov-23 17:50 33.289373 -117.473477 317 6117ft 133kts
04-Nov-23 17:51 33.316785 -117.504265 312 6101ft 134kts
04-Nov-23 17:52 33.342855 -117.536751 316 6116ft 133kts
04-Nov-23 17:53 33.369709 -117.567859 316 6136ft 132kts
04-Nov-23 17:54 33.396495 -117.598877 316 6159ft 133kts
04-Nov-23 17:55 33.423103 -117.630196 314 6179ft 132kts
04-Nov-23 17:56 33.449172 -117.661932 313 6176ft 132kts
04-Nov-23 17:57 33.475621 -117.693837 317 6148ft 133kts
04-Nov-23 17:58 33.503516 -117.724160 315 6109ft 133kts
04-Nov-23 17:59 33.529891 -117.755843 311 6130ft 132kts
04-Nov-23 18:00 33.555545 -117.788041 313 6152ft 132kts
04-Nov-23 18:01 33.582834 -117.818163 317 6171ft 132kts
04-Nov-23 18:02 33.609233 -117.849397 312 6192ft 131kts
04-Nov-23 18:03 33.630140 -117.886357 300 6170ft 132kts
04-Nov-23 18:04 33.649640 -117.924628 297 6132ft 133kts
04-Nov-23 18:05 33.669166 -117.962711 301 6137ft 131kts
04-Nov-23 18:06 33.688780 -118.000557 301 6140ft 130kts
04-Nov-23 18:07 33.708652 -118.037846 301 6133ft 132kts
04-Nov-23 18:08 33.728809 -118.075084 302 6153ft 132kts
04-Nov-23 18:09 33.749112 -118.111884 301 6199ft 130kts
04-Nov-23 18:10 33.769766 -118.148612 301 6167ft 133kts
04-Nov-23 18:11 33.789602 -118.186535 301 6139ft 132kts
04-Nov-23 18:12 33.810455 -118.223221 303 6134ft 132kts
04-Nov-23 18:13 33.829344 -118.261386 298 6120ft 132kts
04-Nov-23 18:14 33.848573 -118.299195 314 5620ft 132kts
04-Nov-23 18:15 33.878464 -118.324980 308 5140ft 130kts
04-Nov-23 18:16 33.896381 -118.362596 327 4598ft 135kts
04-Nov-23 18:17 33.924599 -118.389696 310 4234ft 127kts
04-Nov-23 18:18 33.948338 -118.421579 338 4136ft 129kts
04-Nov-23 18:19 33.982262 -118.439490 330 4030ft 130kts
04-Nov-23 18:20 34.014382 -118.458893 333 4083ft 127kts
04-Nov-23 18:21 34.045618 -118.480002 332 4132ft 127kts
04-Nov-23 18:22 34.078070 -118.499094 329 4101ft 129kts
04-Nov-23 18:23 34.109512 -118.520844 331 4084ft 129kts
04-Nov-23 18:24 34.141779 -118.540849 331 4069ft 129kts
04-Nov-23 18:25 34.174213 -118.560943 334 4053ft 128kts
04-Nov-23 18:26 34.205741 -118.582125 330 4063ft 128kts
04-Nov-23 18:27 34.223471 -118.614021 248 4040ft 131kts
04-Nov-23 18:28 34.214109 -118.653691 202 4155ft 129kts
04-Nov-23 18:29 34.195153 -118.627894 55 4201ft 133kts
04-Nov-23 18:30 34.223976 -118.607274 41 4230ft 95kts
04-Nov-23 18:31 34.225329 -118.572573 92 3938ft 110kts
04-Nov-23 18:32 34.221937 -118.536640 82 3306ft 100kts
04-Nov-23 18:33 34.223686 -118.504406 87 3284ft 92kts
04-Nov-23 18:34 34.230509 -118.474513 53 2933ft 95kts
04-Nov-23 18:35 34.241831 -118.447714 62 2198ft 88kts
04-Nov-23 18:36 34.253204 -118.421387 56 1806ft 86kts
04-Nov-23 18:37 34.268854 -118.404066 326 1851ft 83kts
04-Nov-23 18:38 34.270465 -118.425083 183 1641ft 78kts
04-Nov-23 18:39 34.256783 -118.410803 146 974ft 29kts
04-Nov-23 18:40 34.256410 -118.409756 318 970ft 7kts

Navigation Log

Ident Type
Flight plan parsing failed, navigation log unavailable